createdAt,value
2017-11-03T00:00:29.057Z,94.41
2017-11-03T00:00:59.494Z,94.22
2017-11-03T00:01:30.309Z,94.41
2017-11-03T00:02:01.285Z,94.22
2017-11-03T00:02:32.498Z,94.22
2017-11-03T00:03:03.790Z,94.41
2017-11-03T00:03:34.234Z,94.12
2017-11-03T00:04:05.145Z,94.12
2017-11-03T00:04:37.196Z,93.65
2017-11-03T00:05:08.073Z,93.84
2017-11-03T00:05:39.802Z,93.74
2017-11-03T00:06:09.884Z,93.55
2017-11-03T00:06:40.286Z,93.36
2017-11-03T00:07:11.048Z,92.98
2017-11-03T00:07:42.346Z,92.98
2017-11-03T00:08:13.051Z,93.08
2017-11-03T00:08:44.749Z,93.36
2017-11-03T00:09:15.400Z,93.55
2017-11-03T00:09:47.385Z,93.17
2017-11-03T00:10:19.785Z,93.46
2017-11-03T00:10:51.647Z,93.46
2017-11-03T00:11:22.500Z,92.79
2017-11-03T00:11:54.093Z,93.08
2017-11-03T00:12:25.202Z,92.79
2017-11-03T00:12:56.226Z,93.08
2017-11-03T00:13:26.853Z,93.17
2017-11-03T00:13:59.520Z,93.17
2017-11-03T00:14:32.487Z,92.65
2017-11-03T00:16:02.950Z,92.65
2017-11-03T00:16:34.147Z,92.65
2017-11-03T00:17:05.148Z,92.32
2017-11-03T00:17:36.888Z,92.07
2017-11-03T00:18:09.083Z,92.07
2017-11-03T00:18:41.376Z,91.41
2017-11-03T00:19:13.603Z,91.78
2017-11-03T00:19:45.882Z,91.88
2017-11-03T00:20:16.700Z,91.88
2017-11-03T00:20:48.541Z,91.12
2017-11-03T00:21:19.594Z,91.69
2017-11-03T00:21:52.483Z,91.41
2017-11-03T00:22:23.403Z,91.41
2017-11-03T00:22:54.049Z,91.5
2017-11-03T00:23:24.538Z,91.21
2017-11-03T00:23:55.341Z,91.21
2017-11-03T00:24:26.441Z,91.02
2017-11-03T00:24:57.077Z,91.41
2017-11-03T00:25:29.461Z,91.02
2017-11-03T00:26:01.271Z,91.12
2017-11-03T00:26:32.742Z,91.12
2017-11-03T00:27:04.881Z,91.02
2017-11-03T00:27:35.989Z,90.83
2017-11-03T00:28:07.418Z,90.93
2017-11-03T00:28:38.720Z,90.55
2017-11-03T00:29:10.259Z,90.73
2017-11-03T00:29:41.362Z,90.73
2017-11-03T00:30:12.339Z,90.93
2017-11-03T00:30:42.810Z,90.83
2017-11-03T00:31:13.689Z,90.36
2017-11-03T00:31:46.052Z,90.93
2017-11-03T00:32:17.269Z,91.12
2017-11-03T00:32:48.531Z,91.41
2017-11-03T00:33:19.724Z,91.41
2017-11-03T00:33:50.506Z,91.41
2017-11-03T00:34:21.165Z,91.93
2017-11-03T00:34:51.897Z,91.83
2017-11-03T00:35:23.602Z,91.74
2017-11-03T00:35:55.782Z,91.69
2017-11-03T00:36:27.275Z,91.83
2017-11-03T00:36:58.191Z,92.07
2017-11-03T00:37:30.270Z,91.36
2017-11-03T00:38:01.094Z,91.83
2017-11-03T00:38:32.704Z,91.5
2017-11-03T00:39:04.299Z,91.88
2017-11-03T00:39:35.381Z,92.07
2017-11-03T00:40:05.817Z,92.07
2017-11-03T00:40:43.671Z,91.5
2017-11-03T00:41:15.268Z,91.5
2017-11-03T00:41:46.791Z,92.07
2017-11-03T00:42:19.003Z,91.98
2017-11-03T00:42:50.791Z,91.78
2017-11-03T00:43:22.424Z,92.17
2017-11-03T00:43:52.837Z,91.78
2017-11-03T00:44:23.918Z,92.07
2017-11-03T00:44:54.329Z,91.74
2017-11-03T00:45:25.708Z,91.83
2017-11-03T00:45:56.479Z,91.46
2017-11-03T00:46:27.189Z,91.55
2017-11-03T00:46:58.775Z,91.83
2017-11-03T00:47:30.035Z,91.74
2017-11-03T00:48:01.402Z,92.41
2017-11-03T00:48:31.905Z,92.32
2017-11-03T00:49:02.818Z,92.12
2017-11-03T00:49:34.091Z,91.74
2017-11-03T00:50:04.931Z,92.6
2017-11-03T00:50:36.127Z,92.41
2017-11-03T00:51:06.650Z,92.32
2017-11-03T00:51:37.033Z,92.6
2017-11-03T00:52:08.896Z,92.6
2017-11-03T00:52:39.553Z,92.41
2017-11-03T00:53:11.020Z,92.5
2017-11-03T00:53:41.813Z,92.69
2017-11-03T00:54:12.735Z,92.69
2017-11-03T00:54:43.461Z,92.6
2017-11-03T00:55:14.204Z,92.12
2017-11-03T00:55:45.293Z,92.69
2017-11-03T00:56:15.653Z,92.98
2017-11-03T00:56:47.571Z,92.6
2017-11-03T00:57:19.792Z,92.5
2017-11-03T00:57:50.580Z,92.69
2017-11-03T00:58:21.538Z,92.5
2017-11-03T00:58:51.889Z,92.5
2017-11-03T00:59:22.985Z,92.79
2017-11-03T00:59:53.439Z,92.79
2017-11-03T01:00:24.588Z,92.6
2017-11-03T01:00:56.074Z,93.08
2017-11-03T01:01:26.968Z,92.98
2017-11-03T01:01:57.900Z,93.08
2017-11-03T01:02:28.524Z,92.79
2017-11-03T01:02:59.787Z,92.98
2017-11-03T01:03:30.275Z,92.79
2017-11-03T01:04:02.157Z,92.98
2017-11-03T01:04:33.036Z,92.79
2017-11-03T01:05:05.013Z,92.98
2017-11-03T01:05:36.150Z,92.88
2017-11-03T01:06:07.642Z,92.98
2017-11-03T01:06:39.425Z,92.98
2017-11-03T01:07:10.513Z,93.22
2017-11-03T01:07:42.968Z,92.5
2017-11-03T01:08:14.048Z,92.46
2017-11-03T01:08:45.808Z,92.88
2017-11-03T01:09:18.557Z,92.5
2017-11-03T01:09:49.971Z,92.65
2017-11-03T01:10:23.278Z,92.36
2017-11-03T01:10:55.053Z,92.07
2017-11-03T01:11:27.531Z,92.46
2017-11-03T01:11:59.403Z,92.17
2017-11-03T01:12:31.362Z,92.46
2017-11-03T01:13:02.088Z,92.46
2017-11-03T01:13:38.402Z,91.78
2017-11-03T01:14:09.530Z,91.98
2017-11-03T01:14:40.047Z,91.78
2017-11-03T01:15:11.426Z,91.78
2017-11-03T01:15:44.201Z,91.69
2017-11-03T01:16:15.827Z,91.78
2017-11-03T01:16:47.090Z,91.88
2017-11-03T01:17:20.183Z,91.88
2017-11-03T01:17:51.818Z,91.98
2017-11-03T01:18:23.146Z,91.98
2017-11-03T01:18:55.635Z,92.07
2017-11-03T01:19:27.540Z,92.07
2017-11-03T01:20:00.116Z,92.07
2017-11-03T01:20:31.059Z,91.78
2017-11-03T01:21:02.732Z,92.07
2017-11-03T01:21:35.730Z,91.69
2017-11-03T01:22:07.247Z,91.78
2017-11-03T01:22:39.178Z,91.88
2017-11-03T01:23:09.679Z,92.17
2017-11-03T01:23:40.500Z,91.5
2017-11-03T01:24:14.062Z,92.07
2017-11-03T01:24:45.261Z,92.17
2017-11-03T01:25:16.901Z,91.98
2017-11-03T01:26:47.529Z,91.6
2017-11-03T01:27:18.884Z,91.12
2017-11-03T01:27:49.478Z,91.12
2017-11-03T01:28:20.518Z,91.31
2017-11-03T01:28:51.534Z,91.21
2017-11-03T01:29:23.464Z,91.6
2017-11-03T01:29:54.628Z,91.41
2017-11-03T01:30:25.574Z,91.5
2017-11-03T01:30:57.536Z,91.31
2017-11-03T01:31:28.129Z,91.31
2017-11-03T01:32:00.286Z,91.41
2017-11-03T01:32:32.106Z,91.41
2017-11-03T01:33:04.189Z,91.41
2017-11-03T01:33:34.796Z,91.41
2017-11-03T01:34:05.620Z,91.6
2017-11-03T01:34:36.674Z,91.6
2017-11-03T01:35:06.974Z,91.6
2017-11-03T01:35:34.700Z,91.31
2017-11-03T01:36:01.036Z,91.12
2017-11-03T01:36:27.467Z,91.41
2017-11-03T01:36:54.066Z,91.41
2017-11-03T01:37:20.374Z,91.31
2017-11-03T01:37:51.424Z,91.78
2017-11-03T01:38:23.019Z,91.69
2017-11-03T01:38:54.603Z,91.78
2017-11-03T01:39:22.815Z,92.07
2017-11-03T01:39:53.715Z,92.26
2017-11-03T01:40:24.241Z,92.26
2017-11-03T01:40:55.641Z,92.83
2017-11-03T01:41:27.631Z,92.74
2017-11-03T01:41:59.324Z,92.46
2017-11-03T01:42:31.344Z,92.46
2017-11-03T01:43:02.356Z,92.83
2017-11-03T01:43:34.750Z,92.74
2017-11-03T01:44:06.423Z,92.93
2017-11-03T01:44:38.442Z,92.93
2017-11-03T01:45:11.010Z,92.69
2017-11-03T01:45:42.794Z,93.27
2017-11-03T01:46:41.973Z,93.36
2017-11-03T01:47:13.459Z,93.36
2017-11-03T01:47:45.086Z,93.36
2017-11-03T01:48:16.845Z,93.46
2017-11-03T01:48:47.925Z,93.27
2017-11-03T01:49:18.794Z,93.74
2017-11-03T01:49:49.848Z,93.65
2017-11-03T01:50:23.338Z,94.32
2017-11-03T01:51:22.664Z,94.51
2017-11-03T01:51:53.704Z,94.79
2017-11-03T01:52:24.948Z,94.7
2017-11-03T01:52:56.733Z,94.41
2017-11-03T01:53:27.867Z,95.17
2017-11-03T01:53:59.967Z,95.08
2017-11-03T01:54:30.786Z,94.7
2017-11-03T01:55:02.327Z,94.89
2017-11-03T01:55:33.574Z,94.32
2017-11-03T01:56:05.452Z,94.79
2017-11-03T01:56:36.867Z,94.7
2017-11-03T01:57:09.041Z,94.41
2017-11-03T01:57:40.024Z,94.89
2017-11-03T01:58:11.389Z,93.93
2017-11-03T01:58:41.946Z,94.89
2017-11-03T01:59:13.386Z,94.22
2017-11-03T01:59:44.293Z,94.32
2017-11-03T02:00:15.385Z,94.03
2017-11-03T02:00:47.368Z,94.32
2017-11-03T02:01:17.837Z,94.98
2017-11-03T02:01:48.706Z,94.89
2017-11-03T02:02:20.493Z,94.6
2017-11-03T02:02:51.053Z,95.37
2017-11-03T02:03:22.580Z,95.94
2017-11-03T02:03:54.752Z,95.56
2017-11-03T02:04:25.433Z,95.75
2017-11-03T02:04:59.077Z,95.94
2017-11-03T02:05:30.098Z,96.22
2017-11-03T02:06:02.134Z,96.51
2017-11-03T02:06:32.559Z,96.32
2017-11-03T02:07:03.245Z,96.75
2017-11-03T02:07:33.786Z,96.75
2017-11-03T02:08:04.385Z,97.61
2017-11-03T02:08:35.720Z,97.7
2017-11-03T02:09:07.104Z,97.41
2017-11-03T02:09:38.303Z,97.66
2017-11-03T02:10:09.616Z,97.41
2017-11-03T02:10:40.195Z,97.41
2017-11-03T02:11:40.591Z,97.03
2017-11-03T02:12:12.772Z,97.03
2017-11-03T02:12:43.731Z,97.41
2017-11-03T02:13:15.977Z,97.99
2017-11-03T02:13:47.016Z,97.7
2017-11-03T02:14:18.522Z,97.99
2017-11-03T02:14:50.756Z,98.18
2017-11-03T02:15:21.962Z,98.18
2017-11-03T02:15:54.520Z,97.99
2017-11-03T02:16:25.550Z,97.61
2017-11-03T02:16:56.443Z,98.08
2017-11-03T02:17:27.452Z,97.89
2017-11-03T02:17:57.979Z,98.08
2017-11-03T02:18:28.147Z,97.99
2017-11-03T02:18:58.901Z,98.65
2017-11-03T02:19:30.117Z,98.85
2017-11-03T02:20:01.597Z,98.85
2017-11-03T02:20:33.547Z,98.85
2017-11-03T02:21:05.136Z,98.85
2017-11-03T02:21:37.287Z,98.56
2017-11-03T02:22:09.140Z,98.85
2017-11-03T02:22:40.743Z,99.22
2017-11-03T02:23:11.442Z,99.51
2017-11-03T02:23:42.756Z,99.6
2017-11-03T02:24:13.440Z,99.6
2017-11-03T02:24:45.683Z,99.7
2017-11-03T02:25:16.475Z,99.41
2017-11-03T02:25:47.892Z,99.6
2017-11-03T02:26:19.041Z,99.7
2017-11-03T02:26:49.402Z,99.51
2017-11-03T02:27:19.779Z,99.04
2017-11-03T02:27:50.295Z,99.51
2017-11-03T02:28:22.645Z,99.22
2017-11-03T02:28:53.747Z,99.41
2017-11-03T02:29:24.485Z,99.7
2017-11-03T02:29:55.070Z,99.13
2017-11-03T02:30:26.827Z,99.22
2017-11-03T02:30:57.127Z,99.7
2017-11-03T02:31:28.280Z,99.7
2017-11-03T02:31:59.086Z,99.6
2017-11-03T02:32:29.930Z,99.89
2017-11-03T02:33:00.008Z,99.41
2017-11-03T02:33:30.829Z,99.04
2017-11-03T02:34:02.745Z,99.6
2017-11-03T02:34:34.877Z,99.04
2017-11-03T02:35:07.539Z,99.22
2017-11-03T02:35:37.995Z,99.32
2017-11-03T02:37:07.668Z,99.22
2017-11-03T02:37:38.590Z,99.13
2017-11-03T02:38:10.595Z,99.32
2017-11-03T02:38:41.134Z,99.04
2017-11-03T02:39:11.544Z,99.89
2017-11-03T02:39:41.763Z,99.89
2017-11-03T02:40:12.378Z,99.6
2017-11-03T02:40:42.801Z,99.8
2017-11-03T02:41:14.517Z,99.99
2017-11-03T02:41:45.731Z,99.89
2017-11-03T02:42:16.945Z,99.89
2017-11-03T02:42:47.667Z,99.7
2017-11-03T02:43:18.382Z,99.7
2017-11-03T02:43:50.183Z,99.8
2017-11-03T02:44:20.735Z,99.89
2017-11-03T02:44:51.315Z,99.89
2017-11-03T02:45:21.750Z,99.51
2017-11-03T02:45:52.700Z,99.7
2017-11-03T02:46:21.279Z,99.6
2017-11-03T02:46:47.435Z,99.99
2017-11-03T02:47:13.587Z,99.8
2017-11-03T02:47:39.735Z,99.89
2017-11-03T02:48:05.897Z,99.89
2017-11-03T02:48:32.055Z,99.89
2017-11-03T02:48:58.223Z,99.04
2017-11-03T02:49:24.373Z,99.04
2017-11-03T02:49:50.535Z,99.13
2017-11-03T02:50:16.676Z,99.13
2017-11-03T02:50:42.834Z,99.7
2017-11-03T02:51:08.981Z,99.51
2017-11-03T02:51:35.136Z,99.99
2017-11-03T02:52:01.293Z,99.89
2017-11-03T02:52:27.441Z,99.99
2017-11-03T02:52:53.594Z,99.99
2017-11-03T02:53:19.748Z,99.99
2017-11-03T02:53:45.902Z,99.99
2017-11-03T02:54:12.072Z,99.89
2017-11-03T02:54:38.224Z,99.99
2017-11-03T02:55:04.376Z,99.99
2017-11-03T02:55:30.533Z,99.99
2017-11-03T02:55:56.687Z,99.99
2017-11-03T02:56:22.841Z,99.99
2017-11-03T02:56:48.994Z,99.99
2017-11-03T02:57:15.159Z,99.99
2017-11-03T02:57:41.315Z,99.7
2017-11-03T02:58:07.464Z,99.13
2017-11-03T02:58:33.624Z,99.22
2017-11-03T02:58:59.778Z,99.41
2017-11-03T02:59:25.929Z,99.51
2017-11-03T02:59:52.087Z,99.6
2017-11-03T03:00:18.234Z,99.89
2017-11-03T03:00:44.382Z,99.89
2017-11-03T03:01:10.543Z,99.7
2017-11-03T03:01:36.689Z,99.7
2017-11-03T03:02:02.844Z,99.51
2017-11-03T03:02:29.018Z,99.7
2017-11-03T03:02:55.179Z,99.8
2017-11-03T03:03:21.334Z,99.51
2017-11-03T03:03:47.477Z,99.99
2017-11-03T03:04:13.630Z,99.99
2017-11-03T03:04:39.785Z,99.89
2017-11-03T03:05:05.939Z,99.8
2017-11-03T03:05:32.085Z,99.89
2017-11-03T03:05:58.241Z,99.7
2017-11-03T03:06:24.392Z,99.8
2017-11-03T03:06:50.547Z,99.99
2017-11-03T03:07:16.691Z,99.7
2017-11-03T03:07:42.877Z,99.8
2017-11-03T03:08:09.025Z,99.51
2017-11-03T03:08:35.168Z,99.99
2017-11-03T03:09:01.321Z,99.99
2017-11-03T03:09:27.472Z,99.99
2017-11-03T03:09:53.632Z,99.8
2017-11-03T03:10:19.789Z,99.99
2017-11-03T03:10:45.941Z,99.99
2017-11-03T03:11:12.102Z,99.99
2017-11-03T03:11:38.255Z,99.99
2017-11-03T03:12:04.422Z,99.99
2017-11-03T03:12:30.581Z,99.99
2017-11-03T03:12:56.725Z,99.89
2017-11-03T03:13:22.891Z,99.89
2017-11-03T03:13:49.031Z,99.7
2017-11-03T03:14:15.183Z,99.8
2017-11-03T03:14:41.336Z,99.51
2017-11-03T03:15:07.499Z,99.6
2017-11-03T03:15:34.432Z,99.41
2017-11-03T03:16:00.579Z,99.04
2017-11-03T03:16:26.736Z,99.22
2017-11-03T03:16:52.893Z,99.32
2017-11-03T03:17:19.048Z,99.41
2017-11-03T03:17:45.201Z,99.32
2017-11-03T03:18:11.354Z,99.04
2017-11-03T03:18:37.504Z,99.89
2017-11-03T03:19:03.658Z,99.89
2017-11-03T03:19:29.838Z,99.99
2017-11-03T03:19:55.990Z,99.8
2017-11-03T03:20:22.144Z,99.6
2017-11-03T03:20:48.296Z,99.22
2017-11-03T03:21:14.445Z,99.22
2017-11-03T03:21:40.597Z,99.22
2017-11-03T03:22:06.757Z,99.41
2017-11-03T03:22:32.912Z,99.6
2017-11-03T03:22:59.055Z,99.41
2017-11-03T03:23:25.205Z,99.99
2017-11-03T03:23:51.393Z,99.8
2017-11-03T03:24:17.543Z,99.99
2017-11-03T03:24:43.696Z,99.51
2017-11-03T03:25:09.846Z,99.6
2017-11-03T03:25:36.004Z,99.99
2017-11-03T03:26:02.160Z,99.32
2017-11-03T03:26:28.305Z,99.41
2017-11-03T03:26:54.492Z,99.13
2017-11-03T03:27:20.642Z,99.41
2017-11-03T03:27:46.821Z,99.13
2017-11-03T03:28:12.971Z,99.04
2017-11-03T03:28:39.118Z,99.04
2017-11-03T03:29:05.275Z,99.13
2017-11-03T03:29:31.427Z,99.41
2017-11-03T03:29:57.576Z,99.32
2017-11-03T03:30:23.737Z,99.6
2017-11-03T03:30:49.889Z,99.32
2017-11-03T03:31:16.043Z,99.13
2017-11-03T03:31:42.200Z,99.13
2017-11-03T03:32:08.353Z,99.89
2017-11-03T03:32:34.504Z,99.32
2017-11-03T03:33:00.656Z,98.94
2017-11-03T03:33:26.814Z,99.22
2017-11-03T03:33:52.998Z,98.56
2017-11-03T03:34:19.145Z,99.22
2017-11-03T03:34:45.293Z,99.41
2017-11-03T03:35:11.450Z,99.22
2017-11-03T03:35:37.597Z,99.51
2017-11-03T03:36:03.753Z,99.32
2017-11-03T03:36:29.909Z,99.41
2017-11-03T03:36:56.057Z,98.56
2017-11-03T03:37:22.233Z,98.65
2017-11-03T03:37:48.378Z,98.56
2017-11-03T03:38:14.535Z,98.85
2017-11-03T03:38:40.684Z,98.08
2017-11-03T03:39:06.836Z,97.99
2017-11-03T03:39:32.987Z,98.18
2017-11-03T03:39:59.135Z,97.99
2017-11-03T03:40:25.285Z,98.18
2017-11-03T03:40:51.446Z,98.56
2017-11-03T03:41:17.600Z,98.75
2017-11-03T03:41:43.756Z,98.75
2017-11-03T03:42:09.915Z,98.75
2017-11-03T03:42:36.066Z,98.75
2017-11-03T03:43:02.225Z,98.46
2017-11-03T03:43:28.382Z,98.65
2017-11-03T03:43:54.531Z,98.56
2017-11-03T03:44:20.691Z,98.56
2017-11-03T03:44:46.839Z,98.75
2017-11-03T03:45:12.988Z,98.65
2017-11-03T03:45:39.143Z,98.75
2017-11-03T03:46:05.286Z,98.65
2017-11-03T03:46:31.440Z,98.18
2017-11-03T03:46:57.590Z,97.61
2017-11-03T03:47:23.775Z,97.89
2017-11-03T03:47:49.933Z,97.7
2017-11-03T03:48:16.082Z,97.41
2017-11-03T03:48:42.234Z,97.89
2017-11-03T03:49:08.390Z,97.99
2017-11-03T03:49:34.566Z,98.18
2017-11-03T03:50:00.748Z,97.8
2017-11-03T03:50:26.897Z,97.61
2017-11-03T03:50:53.079Z,97.8
2017-11-03T03:51:19.236Z,97.99
2017-11-03T03:51:45.423Z,98.08
2017-11-03T03:52:11.575Z,97.51
2017-11-03T03:52:37.728Z,97.41
2017-11-03T03:53:03.885Z,97.61
2017-11-03T03:53:30.084Z,97.61
2017-11-03T03:53:56.237Z,97.7
2017-11-03T03:54:22.393Z,97.41
2017-11-03T03:54:48.542Z,97.17
2017-11-03T03:55:14.694Z,96.46
2017-11-03T03:55:40.850Z,96.75
2017-11-03T03:56:07.003Z,96.75
2017-11-03T03:56:33.163Z,96.65
2017-11-03T03:56:59.309Z,96.27
2017-11-03T03:57:25.461Z,96.46
2017-11-03T03:57:51.619Z,96.61
2017-11-03T03:58:17.772Z,96.61
2017-11-03T03:58:43.920Z,96.75
2017-11-03T03:59:10.070Z,96.51
2017-11-03T03:59:36.229Z,96.7
2017-11-03T04:00:02.379Z,96.75
2017-11-03T04:00:28.535Z,96.7
2017-11-03T04:00:54.684Z,96.89
2017-11-03T04:01:20.890Z,96.65
2017-11-03T04:01:47.045Z,96.56
2017-11-03T04:02:13.197Z,96.51
2017-11-03T04:02:39.343Z,96.61
2017-11-03T04:03:05.503Z,96.32
2017-11-03T04:03:31.658Z,96.61
2017-11-03T04:03:57.799Z,96.51
2017-11-03T04:04:23.951Z,96.41
2017-11-03T04:04:50.112Z,96.27
2017-11-03T04:05:16.329Z,96.51
2017-11-03T04:05:42.474Z,96.51
2017-11-03T04:06:08.632Z,96.03
2017-11-03T04:06:34.780Z,96.17
2017-11-03T04:07:00.935Z,96.27
2017-11-03T04:07:27.086Z,95.79
2017-11-03T04:07:53.236Z,95.75
2017-11-03T04:08:19.393Z,96.41
2017-11-03T04:08:45.537Z,95.94
2017-11-03T04:09:11.696Z,95.27
2017-11-03T04:09:37.847Z,95.79
2017-11-03T04:10:03.999Z,96.17
2017-11-03T04:10:30.154Z,96.32
2017-11-03T04:10:56.295Z,95.51
2017-11-03T04:11:22.452Z,95.41
2017-11-03T04:11:48.599Z,96.17
2017-11-03T04:12:14.761Z,95.89
2017-11-03T04:12:40.912Z,95.51
2017-11-03T04:13:07.067Z,96.17
2017-11-03T04:13:33.255Z,95.32
2017-11-03T04:13:59.397Z,95.41
2017-11-03T04:14:25.558Z,96.17
2017-11-03T04:14:51.708Z,96.17
2017-11-03T04:15:17.853Z,95.98
2017-11-03T04:15:44.010Z,95.89
2017-11-03T04:16:10.161Z,95.89
2017-11-03T04:16:36.309Z,95.98
2017-11-03T04:17:02.463Z,96.08
2017-11-03T04:17:28.624Z,96.17
2017-11-03T04:17:54.771Z,96.17
2017-11-03T04:18:20.921Z,96.17
2017-11-03T04:18:47.081Z,96.46
2017-11-03T04:19:13.285Z,96.27
2017-11-03T04:19:39.437Z,96.46
2017-11-03T04:20:05.588Z,96.17
2017-11-03T04:20:31.743Z,96.36
2017-11-03T04:20:57.898Z,96.36
2017-11-03T04:21:24.043Z,96.36
2017-11-03T04:21:50.198Z,96.75
2017-11-03T04:22:16.346Z,96.84
2017-11-03T04:22:42.495Z,96.84
2017-11-03T04:23:08.652Z,96.75
2017-11-03T04:23:34.798Z,96.84
2017-11-03T04:24:00.962Z,96.75
2017-11-03T04:24:27.112Z,96.46
2017-11-03T04:24:53.260Z,96.84
2017-11-03T04:25:19.420Z,97.03
2017-11-03T04:25:45.566Z,96.46
2017-11-03T04:26:11.723Z,96.75
2017-11-03T04:26:37.871Z,96.94
2017-11-03T04:27:04.025Z,96.17
2017-11-03T04:27:30.185Z,96.36
2017-11-03T04:27:56.334Z,96.17
2017-11-03T04:28:22.484Z,96.84
2017-11-03T04:28:48.629Z,96.75
2017-11-03T04:29:14.789Z,96.56
2017-11-03T04:29:40.948Z,96.65
2017-11-03T04:30:07.090Z,96.75
2017-11-03T04:30:33.247Z,96.65
2017-11-03T04:30:59.399Z,96.94
2017-11-03T04:31:25.544Z,96.56
2017-11-03T04:31:51.692Z,96.84
2017-11-03T04:32:17.848Z,96.46
2017-11-03T04:32:44.006Z,96.12
2017-11-03T04:33:10.152Z,96.41
2017-11-03T04:33:36.310Z,96.65
2017-11-03T04:34:02.467Z,97.36
2017-11-03T04:34:28.622Z,97.08
2017-11-03T04:34:54.770Z,97.17
2017-11-03T04:35:20.925Z,97.56
2017-11-03T04:35:47.077Z,97.75
2017-11-03T04:36:13.223Z,97.56
2017-11-03T04:36:39.385Z,98.03
2017-11-03T04:37:05.534Z,98.03
2017-11-03T04:37:31.710Z,98.6
2017-11-03T04:37:57.868Z,98.7
2017-11-03T04:38:24.017Z,98.51
2017-11-03T04:38:50.175Z,98.6
2017-11-03T04:39:16.321Z,98.6
2017-11-03T04:39:42.481Z,99.46
2017-11-03T04:40:08.667Z,99.37
2017-11-03T04:40:34.814Z,99.27
2017-11-03T04:41:00.962Z,98.89
2017-11-03T04:41:27.122Z,99.46
2017-11-03T04:41:53.273Z,98.99
2017-11-03T04:42:19.421Z,99.18
2017-11-03T04:42:45.568Z,99.18
2017-11-03T04:43:11.726Z,99.27
2017-11-03T04:43:37.879Z,99.27
2017-11-03T04:44:04.027Z,99.18
2017-11-03T04:44:30.180Z,99.84
2017-11-03T04:44:56.328Z,99.55
2017-11-03T04:45:22.486Z,99.94
2017-11-03T04:45:48.636Z,99.99
2017-11-03T04:46:14.799Z,99.99
2017-11-03T04:46:40.940Z,99.99
2017-11-03T04:47:07.089Z,99.99
2017-11-03T04:47:33.247Z,99.99
2017-11-03T04:47:59.395Z,99.99
2017-11-03T04:48:25.550Z,99.99
2017-11-03T04:48:51.703Z,99.99
2017-11-03T04:49:17.847Z,99.99
2017-11-03T04:49:44.000Z,99.99
2017-11-03T04:50:10.151Z,99.99
2017-11-03T04:50:36.304Z,99.99
2017-11-03T04:51:02.461Z,99.99
2017-11-03T04:51:28.605Z,99.99
2017-11-03T04:51:54.769Z,99.99
2017-11-03T04:52:20.912Z,99.99
2017-11-03T04:52:47.070Z,99.99
2017-11-03T04:53:13.220Z,99.99
2017-11-03T04:53:39.371Z,99.99
2017-11-03T04:54:05.517Z,99.99
2017-11-03T04:54:31.679Z,99.99
2017-11-03T04:54:57.833Z,99.99
2017-11-03T04:55:23.982Z,99.99
2017-11-03T04:55:50.136Z,99.99
2017-11-03T04:56:16.285Z,99.99
2017-11-03T04:56:42.433Z,99.99
2017-11-03T04:57:08.615Z,99.99
2017-11-03T04:57:34.777Z,99.99
2017-11-03T04:58:00.931Z,99.99
2017-11-03T04:58:27.086Z,99.99
2017-11-03T04:58:53.240Z,99.99
2017-11-03T04:59:19.389Z,99.99
2017-11-03T04:59:45.535Z,99.99
2017-11-03T05:00:11.689Z,99.99
2017-11-03T05:00:37.842Z,99.99
2017-11-03T05:01:04.001Z,99.99
2017-11-03T05:01:30.157Z,99.99
2017-11-03T05:01:56.303Z,99.99
2017-11-03T05:02:22.461Z,99.99
2017-11-03T05:02:48.615Z,99.99
2017-11-03T05:03:14.763Z,99.99
2017-11-03T05:03:40.919Z,99.99
2017-11-03T05:04:07.070Z,99.99
2017-11-03T05:04:33.217Z,99.99
2017-11-03T05:04:59.370Z,99.99
2017-11-03T05:05:25.527Z,99.99
2017-11-03T05:05:51.681Z,99.99
2017-11-03T05:06:17.824Z,99.99
2017-11-03T05:06:43.981Z,99.99
2017-11-03T05:07:10.136Z,99.99
2017-11-03T05:07:36.311Z,99.99
2017-11-03T05:08:02.469Z,99.99
2017-11-03T05:08:28.629Z,99.99
2017-11-03T05:08:54.767Z,99.99
2017-11-03T05:09:20.919Z,99.99
2017-11-03T05:09:47.076Z,99.99
2017-11-03T05:10:13.223Z,99.99
2017-11-03T05:10:39.383Z,99.99
2017-11-03T05:11:05.530Z,99.99
2017-11-03T05:11:31.676Z,99.99
2017-11-03T05:11:57.839Z,99.99
2017-11-03T05:12:23.983Z,99.99
2017-11-03T05:12:50.147Z,99.99
2017-11-03T05:13:16.302Z,99.99
2017-11-03T05:13:42.449Z,99.99
2017-11-03T05:14:08.610Z,99.99
2017-11-03T05:14:34.766Z,99.99
2017-11-03T05:15:00.912Z,99.99
2017-11-03T05:15:27.064Z,99.99
2017-11-03T05:15:53.216Z,99.99
2017-11-03T05:16:19.366Z,99.99
2017-11-03T05:16:45.524Z,99.99
2017-11-03T05:17:11.665Z,99.99
2017-11-03T05:17:37.821Z,99.99
2017-11-03T05:18:03.967Z,99.99
2017-11-03T05:18:30.123Z,99.99
2017-11-03T05:18:56.276Z,99.99
2017-11-03T05:19:22.422Z,99.99
2017-11-03T05:19:48.577Z,99.99
2017-11-03T05:20:14.737Z,99.99
2017-11-03T05:20:40.883Z,99.99
2017-11-03T05:21:07.030Z,99.99
2017-11-03T05:21:33.180Z,99.99
2017-11-03T05:21:59.337Z,99.99
2017-11-03T05:22:25.488Z,99.99
2017-11-03T05:22:51.640Z,99.99
2017-11-03T05:23:17.791Z,99.99
2017-11-03T05:23:43.943Z,99.99
2017-11-03T05:24:10.091Z,99.99
2017-11-03T05:24:36.249Z,99.99
2017-11-03T05:25:02.397Z,99.99
2017-11-03T05:25:28.555Z,99.99
2017-11-03T05:25:54.700Z,99.99
2017-11-03T05:26:20.852Z,99.94
2017-11-03T05:26:47.007Z,99.99
2017-11-03T05:27:13.157Z,99.99
2017-11-03T05:27:39.320Z,99.99
2017-11-03T05:28:05.475Z,99.99
2017-11-03T05:28:31.620Z,99.98
2017-11-03T05:28:57.777Z,99.99
2017-11-03T05:29:23.927Z,99.99
2017-11-03T05:29:50.081Z,99.99
2017-11-03T05:30:16.234Z,99.99
2017-11-03T05:30:42.385Z,99.99
2017-11-03T05:31:08.537Z,99.99
2017-11-03T05:31:34.693Z,99.99
2017-11-03T05:32:00.840Z,99.99
2017-11-03T05:32:26.999Z,99.99
2017-11-03T05:32:53.149Z,99.99
2017-11-03T05:33:19.295Z,99.99
2017-11-03T05:33:45.449Z,99.99
2017-11-03T05:34:11.610Z,99.99
2017-11-03T05:34:37.761Z,99.99
2017-11-03T05:35:03.913Z,99.99
2017-11-03T05:35:30.058Z,99.99
2017-11-03T05:35:56.217Z,99.99
2017-11-03T05:36:22.358Z,99.99
2017-11-03T05:36:48.517Z,99.99
2017-11-03T05:37:14.666Z,99.98
2017-11-03T05:37:40.824Z,99.99
2017-11-03T05:38:06.971Z,99.99
2017-11-03T05:38:33.126Z,99.99
2017-11-03T05:38:59.270Z,99.99
2017-11-03T05:39:25.427Z,99.99
2017-11-03T05:39:51.584Z,99.98
2017-11-03T05:40:17.767Z,99.99
2017-11-03T05:40:43.916Z,99.79
2017-11-03T05:41:10.091Z,99.99
2017-11-03T05:41:36.263Z,99.99
2017-11-03T05:42:02.399Z,99.99
2017-11-03T05:42:28.552Z,99.99
2017-11-03T05:42:54.704Z,99.99
2017-11-03T05:43:20.864Z,99.99
2017-11-03T05:43:47.011Z,99.99
2017-11-03T05:44:13.166Z,99.99
2017-11-03T05:44:39.316Z,99.99
2017-11-03T05:45:05.472Z,99.99
2017-11-03T05:45:31.626Z,99.99
2017-11-03T05:45:57.776Z,99.99
2017-11-03T05:46:25.948Z,99.99
2017-11-03T05:46:54.114Z,99.99
2017-11-03T05:47:21.419Z,99.99
2017-11-03T05:47:48.547Z,99.99
2017-11-03T05:48:16.219Z,99.99
2017-11-03T05:48:43.588Z,99.99
2017-11-03T05:49:10.730Z,99.99
2017-11-03T05:49:36.886Z,99.99
2017-11-03T05:50:03.039Z,99.99
2017-11-03T05:50:29.194Z,99.99
2017-11-03T05:50:55.377Z,99.99
2017-11-03T05:51:21.529Z,99.99
2017-11-03T05:51:47.683Z,99.99
2017-11-03T05:52:13.832Z,99.99
2017-11-03T05:52:39.983Z,99.99
2017-11-03T05:53:06.134Z,99.99
2017-11-03T05:53:33.577Z,99.99
2017-11-03T05:54:01.269Z,99.99
2017-11-03T05:54:27.738Z,99.99
2017-11-03T05:54:54.274Z,99.99
2017-11-03T05:55:20.952Z,99.99
2017-11-03T05:55:47.375Z,99.99
2017-11-03T05:56:13.829Z,99.99
2017-11-03T05:56:40.334Z,99.99
2017-11-03T05:57:07.425Z,99.99
2017-11-03T05:57:35.082Z,99.99
2017-11-03T05:58:03.304Z,99.99
2017-11-03T05:58:31.365Z,99.99
2017-11-03T05:58:59.140Z,99.99
2017-11-03T05:59:26.446Z,99.99
2017-11-03T05:59:53.249Z,99.99
2017-11-03T06:00:20.577Z,99.99
2017-11-03T06:00:47.397Z,99.99
2017-11-03T06:01:14.977Z,99.99
2017-11-03T06:01:41.424Z,99.99
2017-11-03T06:02:07.582Z,99.99
2017-11-03T06:02:33.728Z,99.99
2017-11-03T06:02:59.886Z,99.99
2017-11-03T06:03:26.035Z,99.99
2017-11-03T06:03:52.184Z,99.99
2017-11-03T06:04:18.350Z,99.99
2017-11-03T06:04:44.502Z,99.99
2017-11-03T06:05:10.651Z,99.99
2017-11-03T06:05:36.797Z,99.99
2017-11-03T06:06:02.954Z,99.99
2017-11-03T06:06:29.103Z,99.99
2017-11-03T06:06:55.259Z,99.99
2017-11-03T06:07:21.411Z,99.99
2017-11-03T06:07:47.569Z,99.99
2017-11-03T06:08:13.721Z,99.99
2017-11-03T06:08:39.878Z,99.99
2017-11-03T06:09:06.033Z,99.99
2017-11-03T06:09:32.179Z,99.99